sensor_id;sensor_type;location;lat;lon;timestamp;P1;durP1;ratioP1;P2;durP2;ratioP2
51238;SDS011;38154;47.548;18.828;2022-12-07T00:01:18;5.78;;;3.42;;
51238;SDS011;38154;47.548;18.828;2022-12-07T00:03:46;6.25;;;2.65;;
51238;SDS011;38154;47.548;18.828;2022-12-07T00:06:14;8.60;;;3.20;;
51238;SDS011;38154;47.548;18.828;2022-12-07T00:08:41;5.18;;;2.58;;
51238;SDS011;38154;47.548;18.828;2022-12-07T00:11:11;4.07;;;2.50;;
51238;SDS011;38154;47.548;18.828;2022-12-07T00:13:39;3.50;;;2.28;;
51238;SDS011;38154;47.548;18.828;2022-12-07T00:16:25;5.30;;;2.67;;
51238;SDS011;38154;47.548;18.828;2022-12-07T00:18:53;3.20;;;2.85;;
51238;SDS011;38154;47.548;18.828;2022-12-07T00:21:24;4.60;;;3.17;;
51238;SDS011;38154;47.548;18.828;2022-12-07T00:23:52;4.55;;;3.33;;
51238;SDS011;38154;47.548;18.828;2022-12-07T00:26:23;3.10;;;1.98;;
51238;SDS011;38154;47.548;18.828;2022-12-07T00:28:51;3.47;;;2.12;;
51238;SDS011;38154;47.548;18.828;2022-12-07T00:31:20;2.70;;;2.50;;
51238;SDS011;38154;47.548;18.828;2022-12-07T00:33:48;3.53;;;3.22;;
51238;SDS011;38154;47.548;18.828;2022-12-07T00:36:15;5.25;;;2.95;;
51238;SDS011;38154;47.548;18.828;2022-12-07T00:38:43;6.15;;;2.67;;
51238;SDS011;38154;47.548;18.828;2022-12-07T00:41:10;3.40;;;2.45;;
51238;SDS011;38154;47.548;18.828;2022-12-07T00:43:38;5.93;;;3.03;;
51238;SDS011;38154;47.548;18.828;2022-12-07T00:46:04;2.53;;;1.67;;
51238;SDS011;38154;47.548;18.828;2022-12-07T00:48:30;5.37;;;2.57;;
51238;SDS011;38154;47.548;18.828;2022-12-07T00:50:56;4.95;;;2.87;;
51238;SDS011;38154;47.548;18.828;2022-12-07T00:53:22;4.95;;;2.37;;
51238;SDS011;38154;47.548;18.828;2022-12-07T00:55:48;3.03;;;2.72;;
51238;SDS011;38154;47.548;18.828;2022-12-07T00:58:14;4.85;;;2.53;;
51238;SDS011;38154;47.548;18.828;2022-12-07T01:00:40;4.32;;;2.40;;
51238;SDS011;38154;47.548;18.828;2022-12-07T01:03:08;3.08;;;2.42;;
51238;SDS011;38154;47.548;18.828;2022-12-07T01:05:35;3.00;;;1.87;;
51238;SDS011;38154;47.548;18.828;2022-12-07T01:08:02;3.90;;;2.53;;
51238;SDS011;38154;47.548;18.828;2022-12-07T01:10:28;4.32;;;2.62;;
51238;SDS011;38154;47.548;18.828;2022-12-07T01:12:56;4.05;;;2.03;;
51238;SDS011;38154;47.548;18.828;2022-12-07T01:15:23;4.50;;;2.80;;
51238;SDS011;38154;47.548;18.828;2022-12-07T01:17:49;2.17;;;2.05;;
51238;SDS011;38154;47.548;18.828;2022-12-07T01:20:15;4.15;;;2.62;;
51238;SDS011;38154;47.548;18.828;2022-12-07T01:22:42;4.22;;;3.22;;
51238;SDS011;38154;47.548;18.828;2022-12-07T01:27:36;2.22;;;2.03;;
51238;SDS011;38154;47.548;18.828;2022-12-07T01:30:03;4.68;;;1.92;;
51238;SDS011;38154;47.548;18.828;2022-12-07T01:32:31;5.28;;;2.80;;
51238;SDS011;38154;47.548;18.828;2022-12-07T01:34:58;4.28;;;2.87;;
51238;SDS011;38154;47.548;18.828;2022-12-07T01:37:24;3.22;;;2.92;;
51238;SDS011;38154;47.548;18.828;2022-12-07T01:39:50;4.62;;;2.53;;
51238;SDS011;38154;47.548;18.828;2022-12-07T01:42:17;2.97;;;2.47;;
51238;SDS011;38154;47.548;18.828;2022-12-07T01:47:47;3.97;;;2.97;;
51238;SDS011;38154;47.548;18.828;2022-12-07T01:50:16;3.33;;;2.53;;
51238;SDS011;38154;47.548;18.828;2022-12-07T01:52:43;8.02;;;2.30;;
51238;SDS011;38154;47.548;18.828;2022-12-07T01:55:12;7.93;;;2.65;;
51238;SDS011;38154;47.548;18.828;2022-12-07T01:57:41;4.40;;;3.65;;
51238;SDS011;38154;47.548;18.828;2022-12-07T02:00:11;3.70;;;2.40;;
51238;SDS011;38154;47.548;18.828;2022-12-07T02:02:39;3.85;;;2.80;;
51238;SDS011;38154;47.548;18.828;2022-12-07T02:05:09;4.45;;;2.65;;
51238;SDS011;38154;47.548;18.828;2022-12-07T02:07:36;9.27;;;3.30;;
51238;SDS011;38154;47.548;18.828;2022-12-07T02:10:13;3.75;;;2.47;;
51238;SDS011;38154;47.548;18.828;2022-12-07T02:12:39;6.32;;;3.12;;
51238;SDS011;38154;47.548;18.828;2022-12-07T02:15:05;2.70;;;2.50;;
51238;SDS011;38154;47.548;18.828;2022-12-07T02:17:34;3.53;;;2.65;;
51238;SDS011;38154;47.548;18.828;2022-12-07T02:31:22;2.85;;;2.12;;
51238;SDS011;38154;47.548;18.828;2022-12-07T02:33:54;3.95;;;2.37;;
51238;SDS011;38154;47.548;18.828;2022-12-07T02:36:31;7.77;;;2.57;;
51238;SDS011;38154;47.548;18.828;2022-12-07T02:39:03;4.65;;;2.55;;
51238;SDS011;38154;47.548;18.828;2022-12-07T02:41:47;3.67;;;2.22;;
51238;SDS011;38154;47.548;18.828;2022-12-07T02:44:19;6.30;;;3.22;;
51238;SDS011;38154;47.548;18.828;2022-12-07T02:46:57;3.83;;;2.37;;
51238;SDS011;38154;47.548;18.828;2022-12-07T02:49:27;7.30;;;2.72;;
51238;SDS011;38154;47.548;18.828;2022-12-07T02:51:54;2.35;;;2.00;;
51238;SDS011;38154;47.548;18.828;2022-12-07T02:54:20;4.55;;;2.95;;
51238;SDS011;38154;47.548;18.828;2022-12-07T02:56:50;5.97;;;2.58;;
51238;SDS011;38154;47.548;18.828;2022-12-07T03:10:33;5.05;;;2.87;;
51238;SDS011;38154;47.548;18.828;2022-12-07T03:13:20;6.43;;;3.45;;
51238;SDS011;38154;47.548;18.828;2022-12-07T03:16:05;6.10;;;2.85;;
51238;SDS011;38154;47.548;18.828;2022-12-07T03:18:37;5.12;;;4.12;;
51238;SDS011;38154;47.548;18.828;2022-12-07T03:21:09;4.07;;;2.72;;
51238;SDS011;38154;47.548;18.828;2022-12-07T03:23:40;5.93;;;3.35;;
51238;SDS011;38154;47.548;18.828;2022-12-07T03:26:10;7.70;;;3.87;;
51238;SDS011;38154;47.548;18.828;2022-12-07T03:28:40;4.05;;;3.60;;
51238;SDS011;38154;47.548;18.828;2022-12-07T03:33:52;7.40;;;3.80;;
51238;SDS011;38154;47.548;18.828;2022-12-07T03:36:22;3.30;;;2.75;;
51238;SDS011;38154;47.548;18.828;2022-12-07T03:38:55;3.87;;;2.42;;
51238;SDS011;38154;47.548;18.828;2022-12-07T03:41:29;3.22;;;2.45;;
51238;SDS011;38154;47.548;18.828;2022-12-07T03:43:58;5.78;;;3.45;;
51238;SDS011;38154;47.548;18.828;2022-12-07T03:48:56;5.15;;;3.45;;
51238;SDS011;38154;47.548;18.828;2022-12-07T03:51:24;5.68;;;2.85;;
51238;SDS011;38154;47.548;18.828;2022-12-07T03:54:02;5.03;;;2.85;;
51238;SDS011;38154;47.548;18.828;2022-12-07T03:56:38;4.22;;;3.03;;
51238;SDS011;38154;47.548;18.828;2022-12-07T03:59:05;3.35;;;2.92;;
51238;SDS011;38154;47.548;18.828;2022-12-07T04:01:31;3.40;;;3.08;;
51238;SDS011;38154;47.548;18.828;2022-12-07T04:03:57;5.97;;;3.33;;
51238;SDS011;38154;47.548;18.828;2022-12-07T04:06:23;3.85;;;2.95;;
51238;SDS011;38154;47.548;18.828;2022-12-07T04:08:49;6.40;;;3.35;;
51238;SDS011;38154;47.548;18.828;2022-12-07T04:11:15;4.12;;;3.30;;
51238;SDS011;38154;47.548;18.828;2022-12-07T04:13:40;7.03;;;3.78;;
51238;SDS011;38154;47.548;18.828;2022-12-07T04:16:25;4.45;;;2.58;;
51238;SDS011;38154;47.548;18.828;2022-12-07T04:18:51;5.40;;;2.95;;
51238;SDS011;38154;47.548;18.828;2022-12-07T04:21:16;6.20;;;3.05;;
51238;SDS011;38154;47.548;18.828;2022-12-07T04:23:42;5.95;;;3.10;;
51238;SDS011;38154;47.548;18.828;2022-12-07T04:26:08;3.62;;;2.53;;
51238;SDS011;38154;47.548;18.828;2022-12-07T04:28:34;5.22;;;3.22;;
51238;SDS011;38154;47.548;18.828;2022-12-07T04:31:00;8.38;;;3.83;;
51238;SDS011;38154;47.548;18.828;2022-12-07T04:33:26;7.40;;;4.03;;
51238;SDS011;38154;47.548;18.828;2022-12-07T04:35:52;5.97;;;3.65;;
51238;SDS011;38154;47.548;18.828;2022-12-07T04:38:17;8.70;;;3.90;;
51238;SDS011;38154;47.548;18.828;2022-12-07T04:40:43;7.72;;;4.22;;
51238;SDS011;38154;47.548;18.828;2022-12-07T04:43:09;5.72;;;3.67;;
51238;SDS011;38154;47.548;18.828;2022-12-07T04:45:35;3.60;;;3.05;;
51238;SDS011;38154;47.548;18.828;2022-12-07T04:48:01;4.93;;;3.65;;
51238;SDS011;38154;47.548;18.828;2022-12-07T04:50:27;4.50;;;3.30;;
51238;SDS011;38154;47.548;18.828;2022-12-07T04:52:53;9.48;;;5.47;;
51238;SDS011;38154;47.548;18.828;2022-12-07T04:55:18;5.90;;;3.97;;
51238;SDS011;38154;47.548;18.828;2022-12-07T04:57:44;5.47;;;3.75;;
51238;SDS011;38154;47.548;18.828;2022-12-07T05:00:10;5.30;;;3.67;;
51238;SDS011;38154;47.548;18.828;2022-12-07T05:02:36;5.97;;;2.77;;
51238;SDS011;38154;47.548;18.828;2022-12-07T05:05:02;3.85;;;2.65;;
51238;SDS011;38154;47.548;18.828;2022-12-07T05:07:28;3.75;;;3.03;;
51238;SDS011;38154;47.548;18.828;2022-12-07T05:09:54;4.60;;;2.65;;
51238;SDS011;38154;47.548;18.828;2022-12-07T05:12:20;7.90;;;3.92;;
51238;SDS011;38154;47.548;18.828;2022-12-07T05:14:46;7.22;;;3.90;;
51238;SDS011;38154;47.548;18.828;2022-12-07T05:17:11;4.10;;;3.42;;
51238;SDS011;38154;47.548;18.828;2022-12-07T05:19:37;4.30;;;2.83;;
51238;SDS011;38154;47.548;18.828;2022-12-07T05:22:03;8.13;;;3.17;;
51238;SDS011;38154;47.548;18.828;2022-12-07T05:24:29;6.95;;;2.85;;
51238;SDS011;38154;47.548;18.828;2022-12-07T05:26:55;5.95;;;3.65;;
51238;SDS011;38154;47.548;18.828;2022-12-07T05:29:21;3.37;;;2.83;;
51238;SDS011;38154;47.548;18.828;2022-12-07T05:31:47;3.58;;;2.65;;
51238;SDS011;38154;47.548;18.828;2022-12-07T05:34:12;9.68;;;3.08;;
51238;SDS011;38154;47.548;18.828;2022-12-07T05:36:39;2.90;;;2.20;;
51238;SDS011;38154;47.548;18.828;2022-12-07T05:39:05;6.27;;;3.83;;
51238;SDS011;38154;47.548;18.828;2022-12-07T05:41:31;4.75;;;2.50;;
51238;SDS011;38154;47.548;18.828;2022-12-07T05:44:32;5.28;;;3.17;;
51238;SDS011;38154;47.548;18.828;2022-12-07T05:46:57;4.78;;;2.90;;
51238;SDS011;38154;47.548;18.828;2022-12-07T05:49:23;4.37;;;3.12;;
51238;SDS011;38154;47.548;18.828;2022-12-07T05:51:49;7.72;;;3.12;;
51238;SDS011;38154;47.548;18.828;2022-12-07T05:54:15;5.80;;;3.12;;
51238;SDS011;38154;47.548;18.828;2022-12-07T05:56:41;4.97;;;2.75;;
51238;SDS011;38154;47.548;18.828;2022-12-07T05:59:07;3.05;;;2.60;;
51238;SDS011;38154;47.548;18.828;2022-12-07T06:04:23;5.12;;;3.17;;
51238;SDS011;38154;47.548;18.828;2022-12-07T06:06:50;3.85;;;3.20;;
51238;SDS011;38154;47.548;18.828;2022-12-07T06:09:16;5.10;;;3.20;;
51238;SDS011;38154;47.548;18.828;2022-12-07T06:11:43;7.18;;;3.10;;
51238;SDS011;38154;47.548;18.828;2022-12-07T06:14:28;6.07;;;3.35;;
51238;SDS011;38154;47.548;18.828;2022-12-07T06:16:54;6.72;;;2.62;;
51238;SDS011;38154;47.548;18.828;2022-12-07T06:19:20;5.70;;;4.28;;
51238;SDS011;38154;47.548;18.828;2022-12-07T06:21:46;4.95;;;3.00;;
51238;SDS011;38154;47.548;18.828;2022-12-07T06:24:13;4.82;;;3.55;;
51238;SDS011;38154;47.548;18.828;2022-12-07T06:26:41;8.98;;;3.70;;
51238;SDS011;38154;47.548;18.828;2022-12-07T06:29:07;6.10;;;3.47;;
51238;SDS011;38154;47.548;18.828;2022-12-07T06:31:34;6.80;;;4.22;;
51238;SDS011;38154;47.548;18.828;2022-12-07T06:36:27;7.18;;;3.92;;
51238;SDS011;38154;47.548;18.828;2022-12-07T06:38:53;3.95;;;3.08;;
51238;SDS011;38154;47.548;18.828;2022-12-07T06:41:19;11.17;;;4.97;;
51238;SDS011;38154;47.548;18.828;2022-12-07T06:43:45;6.80;;;3.97;;
51238;SDS011;38154;47.548;18.828;2022-12-07T06:46:11;5.72;;;3.53;;
51238;SDS011;38154;47.548;18.828;2022-12-07T06:48:37;7.10;;;3.95;;
51238;SDS011;38154;47.548;18.828;2022-12-07T06:51:03;7.53;;;3.67;;
51238;SDS011;38154;47.548;18.828;2022-12-07T06:53:29;7.72;;;3.83;;
51238;SDS011;38154;47.548;18.828;2022-12-07T06:55:54;15.32;;;4.87;;
51238;SDS011;38154;47.548;18.828;2022-12-07T06:58:20;10.73;;;4.15;;
51238;SDS011;38154;47.548;18.828;2022-12-07T07:00:47;4.05;;;3.35;;
51238;SDS011;38154;47.548;18.828;2022-12-07T07:03:14;8.52;;;4.65;;
51238;SDS011;38154;47.548;18.828;2022-12-07T07:05:41;6.85;;;3.85;;
51238;SDS011;38154;47.548;18.828;2022-12-07T07:08:07;10.40;;;4.40;;
51238;SDS011;38154;47.548;18.828;2022-12-07T07:10:33;25.52;;;10.45;;
51238;SDS011;38154;47.548;18.828;2022-12-07T07:13:00;11.88;;;6.72;;
51238;SDS011;38154;47.548;18.828;2022-12-07T07:15:26;9.10;;;5.05;;
51238;SDS011;38154;47.548;18.828;2022-12-07T07:17:52;10.38;;;5.07;;
51238;SDS011;38154;47.548;18.828;2022-12-07T07:20:18;8.15;;;5.03;;
51238;SDS011;38154;47.548;18.828;2022-12-07T07:22:44;7.28;;;4.30;;
51238;SDS011;38154;47.548;18.828;2022-12-07T07:25:09;11.85;;;5.80;;
51238;SDS011;38154;47.548;18.828;2022-12-07T07:27:35;8.50;;;4.50;;
51238;SDS011;38154;47.548;18.828;2022-12-07T07:30:01;10.40;;;5.90;;
51238;SDS011;38154;47.548;18.828;2022-12-07T07:32:28;8.77;;;5.32;;
51238;SDS011;38154;47.548;18.828;2022-12-07T07:34:54;14.25;;;5.75;;
51238;SDS011;38154;47.548;18.828;2022-12-07T07:37:19;14.30;;;5.65;;
51238;SDS011;38154;47.548;18.828;2022-12-07T07:39:45;9.40;;;5.70;;
51238;SDS011;38154;47.548;18.828;2022-12-07T07:42:11;13.00;;;5.75;;
51238;SDS011;38154;47.548;18.828;2022-12-07T07:44:37;11.57;;;5.72;;
51238;SDS011;38154;47.548;18.828;2022-12-07T07:47:03;10.45;;;5.97;;
51238;SDS011;38154;47.548;18.828;2022-12-07T07:49:29;9.73;;;4.70;;
51238;SDS011;38154;47.548;18.828;2022-12-07T07:51:55;10.77;;;5.78;;
51238;SDS011;38154;47.548;18.828;2022-12-07T07:54:21;13.55;;;7.75;;
51238;SDS011;38154;47.548;18.828;2022-12-07T07:56:46;20.52;;;8.65;;
51238;SDS011;38154;47.548;18.828;2022-12-07T07:59:12;16.33;;;8.15;;
51238;SDS011;38154;47.548;18.828;2022-12-07T08:01:39;12.27;;;6.00;;
51238;SDS011;38154;47.548;18.828;2022-12-07T08:04:05;13.45;;;7.12;;
51238;SDS011;38154;47.548;18.828;2022-12-07T08:06:31;16.37;;;6.37;;
51238;SDS011;38154;47.548;18.828;2022-12-07T08:08:57;12.07;;;6.32;;
51238;SDS011;38154;47.548;18.828;2022-12-07T08:11:23;13.85;;;6.80;;
51238;SDS011;38154;47.548;18.828;2022-12-07T08:13:50;14.75;;;8.38;;
51238;SDS011;38154;47.548;18.828;2022-12-07T08:16:16;19.60;;;9.13;;
51238;SDS011;38154;47.548;18.828;2022-12-07T08:18:42;14.18;;;8.50;;
51238;SDS011;38154;47.548;18.828;2022-12-07T08:21:12;12.67;;;7.30;;
51238;SDS011;38154;47.548;18.828;2022-12-07T08:23:39;13.30;;;7.00;;
51238;SDS011;38154;47.548;18.828;2022-12-07T08:26:06;11.30;;;6.68;;
51238;SDS011;38154;47.548;18.828;2022-12-07T08:28:34;11.20;;;6.40;;
51238;SDS011;38154;47.548;18.828;2022-12-07T08:31:00;10.48;;;5.87;;
51238;SDS011;38154;47.548;18.828;2022-12-07T08:33:34;10.95;;;5.32;;
51238;SDS011;38154;47.548;18.828;2022-12-07T08:36:01;11.57;;;5.95;;
51238;SDS011;38154;47.548;18.828;2022-12-07T08:38:27;11.82;;;5.80;;
51238;SDS011;38154;47.548;18.828;2022-12-07T08:40:54;13.30;;;6.87;;
51238;SDS011;38154;47.548;18.828;2022-12-07T08:43:21;15.60;;;6.60;;
51238;SDS011;38154;47.548;18.828;2022-12-07T08:46:06;13.23;;;7.30;;
51238;SDS011;38154;47.548;18.828;2022-12-07T08:48:44;10.32;;;6.10;;
51238;SDS011;38154;47.548;18.828;2022-12-07T08:51:22;10.88;;;6.30;;
51238;SDS011;38154;47.548;18.828;2022-12-07T08:53:49;12.30;;;5.82;;
51238;SDS011;38154;47.548;18.828;2022-12-07T08:56:19;14.40;;;7.03;;
51238;SDS011;38154;47.548;18.828;2022-12-07T08:58:46;12.15;;;5.55;;
51238;SDS011;38154;47.548;18.828;2022-12-07T09:01:13;13.82;;;7.28;;
51238;SDS011;38154;47.548;18.828;2022-12-07T09:03:39;11.20;;;6.00;;
51238;SDS011;38154;47.548;18.828;2022-12-07T09:06:05;12.20;;;6.22;;
51238;SDS011;38154;47.548;18.828;2022-12-07T09:08:36;12.37;;;6.35;;
51238;SDS011;38154;47.548;18.828;2022-12-07T09:11:06;11.57;;;6.37;;
51238;SDS011;38154;47.548;18.828;2022-12-07T09:13:31;10.73;;;5.30;;
51238;SDS011;38154;47.548;18.828;2022-12-07T09:15:57;14.73;;;6.60;;
51238;SDS011;38154;47.548;18.828;2022-12-07T09:18:23;12.73;;;6.03;;
51238;SDS011;38154;47.548;18.828;2022-12-07T09:20:50;12.95;;;6.15;;
51238;SDS011;38154;47.548;18.828;2022-12-07T09:23:16;17.58;;;8.40;;
51238;SDS011;38154;47.548;18.828;2022-12-07T09:25:42;10.23;;;5.53;;
51238;SDS011;38154;47.548;18.828;2022-12-07T09:28:08;7.77;;;4.97;;
51238;SDS011;38154;47.548;18.828;2022-12-07T09:30:34;8.93;;;5.37;;
51238;SDS011;38154;47.548;18.828;2022-12-07T09:33:00;8.83;;;5.47;;
51238;SDS011;38154;47.548;18.828;2022-12-07T09:35:26;12.37;;;6.15;;
51238;SDS011;38154;47.548;18.828;2022-12-07T09:37:52;8.70;;;5.40;;
51238;SDS011;38154;47.548;18.828;2022-12-07T09:40:19;17.50;;;6.43;;
51238;SDS011;38154;47.548;18.828;2022-12-07T09:42:47;9.02;;;4.95;;
51238;SDS011;38154;47.548;18.828;2022-12-07T09:45:18;8.05;;;4.37;;
51238;SDS011;38154;47.548;18.828;2022-12-07T09:47:47;6.93;;;4.35;;
51238;SDS011;38154;47.548;18.828;2022-12-07T09:50:14;9.00;;;4.90;;
51238;SDS011;38154;47.548;18.828;2022-12-07T09:52:43;13.68;;;5.97;;
51238;SDS011;38154;47.548;18.828;2022-12-07T09:55:12;8.60;;;4.82;;
51238;SDS011;38154;47.548;18.828;2022-12-07T09:57:39;9.75;;;5.22;;
51238;SDS011;38154;47.548;18.828;2022-12-07T10:00:13;12.93;;;6.62;;
51238;SDS011;38154;47.548;18.828;2022-12-07T10:02:43;17.25;;;8.32;;
51238;SDS011;38154;47.548;18.828;2022-12-07T10:05:17;10.32;;;6.15;;
51238;SDS011;38154;47.548;18.828;2022-12-07T10:07:54;6.97;;;4.43;;
51238;SDS011;38154;47.548;18.828;2022-12-07T10:10:24;15.68;;;7.15;;
51238;SDS011;38154;47.548;18.828;2022-12-07T10:13:05;8.52;;;4.70;;
51238;SDS011;38154;47.548;18.828;2022-12-07T10:18:30;9.18;;;4.95;;
51238;SDS011;38154;47.548;18.828;2022-12-07T10:21:05;10.02;;;5.50;;
51238;SDS011;38154;47.548;18.828;2022-12-07T10:23:58;10.00;;;5.30;;
51238;SDS011;38154;47.548;18.828;2022-12-07T10:26:41;7.85;;;4.72;;
51238;SDS011;38154;47.548;18.828;2022-12-07T10:29:23;7.62;;;5.00;;
51238;SDS011;38154;47.548;18.828;2022-12-07T10:32:05;8.00;;;4.20;;
51238;SDS011;38154;47.548;18.828;2022-12-07T10:34:50;8.93;;;4.30;;
51238;SDS011;38154;47.548;18.828;2022-12-07T10:37:39;18.25;;;9.00;;
51238;SDS011;38154;47.548;18.828;2022-12-07T10:40:10;12.95;;;6.65;;
51238;SDS011;38154;47.548;18.828;2022-12-07T11:08:30;17.90;;;7.55;;
51238;SDS011;38154;47.548;18.828;2022-12-07T11:13:39;13.85;;;4.85;;
51238;SDS011;38154;47.548;18.828;2022-12-07T11:16:19;8.77;;;5.60;;
51238;SDS011;38154;47.548;18.828;2022-12-07T11:19:00;16.75;;;7.65;;
51238;SDS011;38154;47.548;18.828;2022-12-07T11:21:34;10.82;;;6.43;;
51238;SDS011;38154;47.548;18.828;2022-12-07T11:25:02;20.08;;;8.80;;
51238;SDS011;38154;47.548;18.828;2022-12-07T11:33:40;13.52;;;5.97;;
51238;SDS011;38154;47.548;18.828;2022-12-07T11:39:03;9.35;;;5.18;;
51238;SDS011;38154;47.548;18.828;2022-12-07T11:41:37;7.47;;;4.87;;
51238;SDS011;38154;47.548;18.828;2022-12-07T11:44:07;5.70;;;3.83;;
51238;SDS011;38154;47.548;18.828;2022-12-07T11:46:54;9.63;;;4.62;;
51238;SDS011;38154;47.548;18.828;2022-12-07T11:49:27;6.18;;;3.80;;
51238;SDS011;38154;47.548;18.828;2022-12-07T11:55:36;8.57;;;4.43;;
51238;SDS011;38154;47.548;18.828;2022-12-07T11:58:11;6.87;;;4.22;;
51238;SDS011;38154;47.548;18.828;2022-12-07T12:00:39;10.88;;;5.00;;
51238;SDS011;38154;47.548;18.828;2022-12-07T12:03:11;10.02;;;4.75;;
51238;SDS011;38154;47.548;18.828;2022-12-07T12:05:41;6.45;;;4.57;;
51238;SDS011;38154;47.548;18.828;2022-12-07T12:08:42;7.50;;;4.50;;
51238;SDS011;38154;47.548;18.828;2022-12-07T12:16:40;5.70;;;4.18;;
51238;SDS011;38154;47.548;18.828;2022-12-07T12:19:46;6.90;;;3.95;;
51238;SDS011;38154;47.548;18.828;2022-12-07T12:22:32;8.93;;;4.22;;
51238;SDS011;38154;47.548;18.828;2022-12-07T12:25:04;4.12;;;3.20;;
51238;SDS011;38154;47.548;18.828;2022-12-07T12:27:36;7.82;;;3.95;;
51238;SDS011;38154;47.548;18.828;2022-12-07T12:30:06;6.70;;;2.97;;
51238;SDS011;38154;47.548;18.828;2022-12-07T12:32:49;9.40;;;4.68;;
51238;SDS011;38154;47.548;18.828;2022-12-07T12:37:54;7.55;;;4.35;;
51238;SDS011;38154;47.548;18.828;2022-12-07T12:42:53;8.15;;;4.90;;
51238;SDS011;38154;47.548;18.828;2022-12-07T12:45:22;7.10;;;3.90;;
51238;SDS011;38154;47.548;18.828;2022-12-07T12:48:00;6.78;;;3.62;;
51238;SDS011;38154;47.548;18.828;2022-12-07T12:53:05;9.82;;;4.22;;
51238;SDS011;38154;47.548;18.828;2022-12-07T13:00:44;14.85;;;8.48;;
51238;SDS011;38154;47.548;18.828;2022-12-07T13:03:22;6.68;;;3.60;;
51238;SDS011;38154;47.548;18.828;2022-12-07T13:08:45;6.10;;;4.10;;
51238;SDS011;38154;47.548;18.828;2022-12-07T13:17:00;7.90;;;4.72;;
51238;SDS011;38154;47.548;18.828;2022-12-07T13:20:19;11.82;;;5.18;;
51238;SDS011;38154;47.548;18.828;2022-12-07T13:25:59;7.20;;;4.30;;
51238;SDS011;38154;47.548;18.828;2022-12-07T13:28:09;10.63;;;4.43;;
51238;SDS011;38154;47.548;18.828;2022-12-07T13:30:48;7.37;;;3.42;;
51238;SDS011;38154;47.548;18.828;2022-12-07T13:33:24;7.62;;;4.18;;
51238;SDS011;38154;47.548;18.828;2022-12-07T13:35:54;6.55;;;4.15;;
51238;SDS011;38154;47.548;18.828;2022-12-07T13:41:03;8.10;;;4.60;;
51238;SDS011;38154;47.548;18.828;2022-12-07T13:43:30;5.22;;;3.08;;
51238;SDS011;38154;47.548;18.828;2022-12-07T13:45:59;10.20;;;4.50;;
51238;SDS011;38154;47.548;18.828;2022-12-07T13:53:51;16.37;;;7.62;;
51238;SDS011;38154;47.548;18.828;2022-12-07T13:56:22;22.35;;;7.50;;
51238;SDS011;38154;47.548;18.828;2022-12-07T13:58:51;14.00;;;6.47;;
51238;SDS011;38154;47.548;18.828;2022-12-07T14:01:17;18.10;;;6.47;;
51238;SDS011;38154;47.548;18.828;2022-12-07T14:03:43;13.60;;;6.93;;
51238;SDS011;38154;47.548;18.828;2022-12-07T14:09:08;13.05;;;7.22;;
51238;SDS011;38154;47.548;18.828;2022-12-07T14:11:45;10.73;;;5.53;;
51238;SDS011;38154;47.548;18.828;2022-12-07T14:14:14;14.30;;;5.68;;
51238;SDS011;38154;47.548;18.828;2022-12-07T14:16:43;7.20;;;4.15;;
51238;SDS011;38154;47.548;18.828;2022-12-07T14:22:08;7.90;;;4.93;;
51238;SDS011;38154;47.548;18.828;2022-12-07T14:24:43;13.93;;;5.55;;
51238;SDS011;38154;47.548;18.828;2022-12-07T14:27:17;8.70;;;4.40;;
51238;SDS011;38154;47.548;18.828;2022-12-07T14:29:45;8.30;;;5.60;;
51238;SDS011;38154;47.548;18.828;2022-12-07T14:32:21;9.18;;;4.53;;
51238;SDS011;38154;47.548;18.828;2022-12-07T14:34:55;7.93;;;4.57;;
51238;SDS011;38154;47.548;18.828;2022-12-07T14:37:24;8.88;;;5.32;;
51238;SDS011;38154;47.548;18.828;2022-12-07T14:39:51;16.95;;;7.80;;
51238;SDS011;38154;47.548;18.828;2022-12-07T14:42:17;14.23;;;6.70;;
51238;SDS011;38154;47.548;18.828;2022-12-07T14:44:43;12.07;;;6.87;;
51238;SDS011;38154;47.548;18.828;2022-12-07T14:47:10;16.83;;;6.85;;
51238;SDS011;38154;47.548;18.828;2022-12-07T14:49:36;16.08;;;7.55;;
51238;SDS011;38154;47.548;18.828;2022-12-07T14:52:02;15.02;;;6.40;;
51238;SDS011;38154;47.548;18.828;2022-12-07T14:54:29;6.62;;;3.92;;
51238;SDS011;38154;47.548;18.828;2022-12-07T14:56:57;10.15;;;5.03;;
51238;SDS011;38154;47.548;18.828;2022-12-07T14:59:23;7.13;;;4.10;;
51238;SDS011;38154;47.548;18.828;2022-12-07T15:01:49;9.90;;;4.75;;
51238;SDS011;38154;47.548;18.828;2022-12-07T15:04:15;9.83;;;5.00;;
51238;SDS011;38154;47.548;18.828;2022-12-07T15:06:41;5.72;;;4.57;;
51238;SDS011;38154;47.548;18.828;2022-12-07T15:09:10;11.48;;;4.90;;
51238;SDS011;38154;47.548;18.828;2022-12-07T15:11:36;8.73;;;4.03;;
51238;SDS011;38154;47.548;18.828;2022-12-07T15:14:02;8.10;;;4.18;;
51238;SDS011;38154;47.548;18.828;2022-12-07T15:16:35;9.65;;;4.45;;
51238;SDS011;38154;47.548;18.828;2022-12-07T15:19:01;6.12;;;3.90;;
51238;SDS011;38154;47.548;18.828;2022-12-07T15:21:28;7.33;;;3.63;;
51238;SDS011;38154;47.548;18.828;2022-12-07T15:23:53;8.00;;;4.35;;
51238;SDS011;38154;47.548;18.828;2022-12-07T15:26:19;6.47;;;3.72;;
51238;SDS011;38154;47.548;18.828;2022-12-07T15:28:45;8.10;;;4.50;;
51238;SDS011;38154;47.548;18.828;2022-12-07T15:31:11;18.48;;;4.78;;
51238;SDS011;38154;47.548;18.828;2022-12-07T15:33:38;12.48;;;4.72;;
51238;SDS011;38154;47.548;18.828;2022-12-07T15:36:04;11.73;;;5.87;;
51238;SDS011;38154;47.548;18.828;2022-12-07T15:38:30;9.70;;;5.67;;
51238;SDS011;38154;47.548;18.828;2022-12-07T15:40:56;12.93;;;6.70;;
51238;SDS011;38154;47.548;18.828;2022-12-07T15:43:22;18.12;;;6.78;;
51238;SDS011;38154;47.548;18.828;2022-12-07T15:46:07;8.25;;;4.70;;
51238;SDS011;38154;47.548;18.828;2022-12-07T15:48:33;12.13;;;5.63;;
51238;SDS011;38154;47.548;18.828;2022-12-07T15:51:05;14.07;;;5.15;;
51238;SDS011;38154;47.548;18.828;2022-12-07T15:53:33;11.02;;;5.70;;
51238;SDS011;38154;47.548;18.828;2022-12-07T15:58:26;14.57;;;6.28;;
51238;SDS011;38154;47.548;18.828;2022-12-07T16:00:52;31.07;;;10.57;;
51238;SDS011;38154;47.548;18.828;2022-12-07T16:03:18;18.10;;;7.25;;
51238;SDS011;38154;47.548;18.828;2022-12-07T16:05:50;23.55;;;10.35;;
51238;SDS011;38154;47.548;18.828;2022-12-07T16:08:17;14.60;;;6.05;;
51238;SDS011;38154;47.548;18.828;2022-12-07T16:10:43;20.33;;;7.07;;
51238;SDS011;38154;47.548;18.828;2022-12-07T16:13:09;16.90;;;6.95;;
51238;SDS011;38154;47.548;18.828;2022-12-07T16:15:39;12.43;;;5.75;;
51238;SDS011;38154;47.548;18.828;2022-12-07T16:18:05;21.87;;;7.68;;
51238;SDS011;38154;47.548;18.828;2022-12-07T16:20:32;19.83;;;7.65;;
51238;SDS011;38154;47.548;18.828;2022-12-07T16:22:58;26.55;;;7.45;;
51238;SDS011;38154;47.548;18.828;2022-12-07T16:25:24;13.90;;;6.32;;
51238;SDS011;38154;47.548;18.828;2022-12-07T16:27:51;14.00;;;6.53;;
51238;SDS011;38154;47.548;18.828;2022-12-07T16:30:17;12.27;;;6.20;;
51238;SDS011;38154;47.548;18.828;2022-12-07T16:32:43;11.27;;;5.60;;
51238;SDS011;38154;47.548;18.828;2022-12-07T16:35:10;12.25;;;5.55;;
51238;SDS011;38154;47.548;18.828;2022-12-07T16:40:02;14.63;;;4.47;;
51238;SDS011;38154;47.548;18.828;2022-12-07T16:44:58;7.07;;;4.20;;
51238;SDS011;38154;47.548;18.828;2022-12-07T16:47:24;8.82;;;4.45;;
51238;SDS011;38154;47.548;18.828;2022-12-07T16:49:49;8.00;;;4.90;;
51238;SDS011;38154;47.548;18.828;2022-12-07T16:52:16;10.85;;;5.95;;
51238;SDS011;38154;47.548;18.828;2022-12-07T16:54:42;12.10;;;6.28;;
51238;SDS011;38154;47.548;18.828;2022-12-07T16:57:08;18.43;;;7.63;;